createdAt,value
2018-09-13T00:01:25.845Z,14.07
2018-09-13T00:03:54.353Z,16.20
2018-09-13T00:06:22.884Z,13.50
2018-09-13T00:08:51.372Z,14.07
2018-09-13T00:11:19.961Z,13.67
2018-09-13T00:13:48.500Z,14.43
2018-09-13T00:16:16.890Z,14.07
2018-09-13T00:18:45.383Z,14.27
2018-09-13T00:21:13.776Z,14.23
2018-09-13T00:23:42.219Z,16.10
2018-09-13T00:26:10.652Z,13.37
2018-09-13T00:28:39.077Z,15.23
2018-09-13T00:31:07.468Z,15.97
2018-09-13T00:33:35.933Z,14.60
2018-09-13T00:36:04.358Z,14.87
2018-09-13T00:38:32.844Z,14.70
2018-09-13T00:41:01.199Z,15.63
2018-09-13T00:43:29.651Z,15.37
2018-09-13T00:45:58.079Z,16.23
2018-09-13T00:48:26.581Z,14.70
2018-09-13T00:50:55.133Z,14.67
2018-09-13T00:53:23.537Z,14.63
2018-09-13T00:55:52.095Z,14.77
2018-09-13T00:58:20.515Z,11.90
2018-09-13T01:00:48.971Z,13.17
2018-09-13T01:03:17.424Z,12.53
2018-09-13T01:05:45.844Z,12.33
2018-09-13T01:08:14.283Z,12.97
2018-09-13T01:10:42.734Z,12.37
2018-09-13T01:13:11.172Z,13.07
2018-09-13T01:15:39.600Z,12.87
2018-09-13T01:18:08.036Z,12.90
2018-09-13T01:20:36.468Z,12.37
2018-09-13T01:23:04.940Z,11.63
2018-09-13T01:25:33.440Z,11.50
2018-09-13T01:28:01.841Z,12.70
2018-09-13T01:30:30.280Z,11.83
2018-09-13T01:32:58.688Z,14.13
2018-09-13T01:35:27.074Z,13.17
2018-09-13T01:37:55.479Z,14.47
2018-09-13T01:40:23.932Z,15.73
2018-09-13T01:42:52.362Z,15.00
2018-09-13T01:45:20.757Z,17.47
2018-09-13T01:47:49.169Z,17.80
2018-09-13T01:50:17.663Z,17.60
2018-09-13T01:52:46.106Z,19.60
2018-09-13T01:55:14.502Z,18.20
2018-09-13T01:57:43.110Z,18.43
2018-09-13T02:00:11.529Z,16.87
2018-09-13T02:02:39.953Z,19.97
2018-09-13T02:05:08.558Z,18.27
2018-09-13T02:07:36.982Z,19.50
2018-09-13T02:10:05.852Z,18.43
2018-09-13T02:12:34.268Z,19.07
2018-09-13T02:15:02.672Z,17.20
2018-09-13T02:17:31.084Z,18.30
2018-09-13T02:19:59.760Z,22.13
2018-09-13T02:22:28.201Z,23.77
2018-09-13T02:24:56.641Z,22.00
2018-09-13T02:27:25.196Z,22.23
2018-09-13T02:29:53.604Z,18.20
2018-09-13T02:32:22.331Z,17.23
2018-09-13T02:34:50.749Z,17.23
2018-09-13T02:37:19.161Z,20.87
2018-09-13T02:39:47.676Z,19.63
2018-09-13T02:42:16.275Z,17.60
2018-09-13T02:44:44.691Z,18.50
2018-09-13T02:47:13.067Z,18.77
2018-09-13T02:49:41.466Z,19.63
2018-09-13T02:52:09.842Z,16.70
2018-09-13T02:54:38.279Z,19.37
2018-09-13T02:57:06.690Z,18.57
2018-09-13T02:59:35.141Z,19.73
2018-09-13T03:02:03.559Z,26.83
2018-09-13T03:04:31.957Z,20.13
2018-09-13T03:07:00.420Z,18.50
2018-09-13T03:09:28.818Z,20.67
2018-09-13T03:11:57.206Z,20.07
2018-09-13T03:14:25.593Z,21.87
2018-09-13T03:16:54.137Z,18.73
2018-09-13T03:19:22.595Z,18.97
2018-09-13T03:21:51.029Z,22.40
2018-09-13T03:24:19.457Z,23.57
2018-09-13T03:26:47.876Z,23.73
2018-09-13T03:29:16.300Z,23.83
2018-09-13T03:31:44.701Z,20.03
2018-09-13T03:34:13.220Z,24.77
2018-09-13T03:36:41.807Z,23.20
2018-09-13T03:39:11.529Z,23.17
2018-09-13T03:41:39.937Z,23.37
2018-09-13T03:44:08.656Z,23.43
2018-09-13T03:46:37.418Z,21.60
2018-09-13T03:49:06.088Z,25.50
2018-09-13T03:51:34.493Z,23.97
2018-09-13T03:54:02.967Z,24.90
2018-09-13T03:56:31.395Z,22.60
2018-09-13T03:58:59.829Z,26.87
2018-09-13T04:01:28.269Z,26.17
2018-09-13T04:03:56.703Z,22.33
2018-09-13T04:06:25.164Z,24.83
2018-09-13T04:08:53.632Z,25.47
2018-09-13T04:11:22.044Z,21.53
2018-09-13T04:13:50.511Z,24.70
2018-09-13T04:16:18.968Z,22.50
2018-09-13T04:18:47.787Z,26.40
2018-09-13T04:21:16.489Z,25.23
2018-09-13T04:23:44.900Z,21.00
2018-09-13T04:26:13.284Z,26.20
2018-09-13T04:28:41.812Z,23.73
2018-09-13T04:31:10.200Z,25.80
2018-09-13T04:33:38.629Z,26.13
2018-09-13T04:36:07.761Z,23.80
2018-09-13T04:38:36.148Z,23.87
2018-09-13T04:41:04.556Z,22.03
2018-09-13T04:43:32.980Z,22.77
2018-09-13T04:46:01.401Z,22.07
2018-09-13T04:48:29.853Z,22.53
2018-09-13T04:50:58.296Z,19.00
2018-09-13T04:53:26.672Z,18.57
2018-09-13T04:55:55.159Z,19.37
2018-09-13T04:58:23.703Z,16.37
2018-09-13T05:00:52.105Z,13.00
2018-09-13T05:03:20.508Z,14.93
2018-09-13T05:05:48.935Z,12.63
2018-09-13T05:08:17.388Z,11.10
2018-09-13T05:10:45.897Z,11.27
2018-09-13T05:13:14.339Z,12.77
2018-09-13T05:15:42.767Z,13.77
2018-09-13T05:18:11.184Z,11.47
2018-09-13T05:20:39.601Z,14.03
2018-09-13T05:23:07.999Z,13.03
2018-09-13T05:25:36.463Z,13.87
2018-09-13T05:28:05.205Z,13.00
2018-09-13T05:30:33.604Z,14.23
2018-09-13T05:33:02.034Z,15.10
2018-09-13T05:35:30.425Z,15.63
2018-09-13T05:37:58.889Z,14.43
2018-09-13T05:40:27.349Z,16.70
2018-09-13T05:42:55.794Z,13.13
2018-09-13T05:45:24.287Z,13.67
2018-09-13T05:47:52.795Z,14.40
2018-09-13T05:50:21.253Z,14.13
2018-09-13T05:52:49.676Z,15.07
2018-09-13T05:55:18.061Z,15.63
2018-09-13T05:57:53.361Z,14.70
2018-09-13T06:00:21.960Z,16.77
2018-09-13T06:02:50.390Z,14.10
2018-09-13T06:05:18.817Z,14.60
2018-09-13T06:07:47.328Z,15.40
2018-09-13T06:10:15.777Z,15.10
2018-09-13T06:12:44.171Z,13.37
2018-09-13T06:15:12.583Z,15.27
2018-09-13T06:17:40.959Z,16.43
2018-09-13T06:20:09.353Z,14.80
2018-09-13T06:22:37.805Z,13.57
2018-09-13T06:25:06.231Z,13.27
2018-09-13T06:27:34.705Z,12.77
2018-09-13T06:30:03.154Z,15.00
2018-09-13T06:32:31.548Z,13.07
2018-09-13T06:35:00.051Z,14.23
2018-09-13T06:37:28.800Z,14.40
2018-09-13T06:39:57.223Z,14.73
2018-09-13T06:42:25.742Z,16.17
2018-09-13T06:44:54.174Z,14.43
2018-09-13T06:47:22.594Z,14.27
2018-09-13T06:49:50.977Z,12.00
2018-09-13T06:52:19.668Z,13.10
2018-09-13T06:54:48.378Z,13.70
2018-09-13T06:57:16.761Z,12.50
2018-09-13T06:59:45.264Z,13.17
2018-09-13T07:02:13.723Z,14.13
2018-09-13T07:04:42.170Z,14.13
2018-09-13T07:07:10.695Z,14.33
2018-09-13T07:09:39.245Z,14.67
2018-09-13T07:12:07.634Z,14.40
2018-09-13T07:14:36.095Z,13.97
2018-09-13T07:17:04.567Z,14.13
2018-09-13T07:19:33.041Z,14.93
2018-09-13T07:22:01.522Z,13.27
2018-09-13T07:24:30.266Z,14.33
2018-09-13T07:26:58.691Z,13.90
2018-09-13T07:29:27.079Z,12.53
2018-09-13T07:31:55.520Z,14.93
2018-09-13T07:34:23.927Z,13.50
2018-09-13T07:36:52.434Z,13.83
2018-09-13T07:39:20.879Z,14.30
2018-09-13T07:41:49.397Z,13.10
2018-09-13T07:44:17.824Z,13.20
2018-09-13T07:46:46.355Z,13.77
2018-09-13T07:49:14.817Z,14.23
2018-09-13T07:51:43.204Z,13.07
2018-09-13T07:54:11.654Z,13.77
2018-09-13T07:56:40.112Z,14.73
2018-09-13T07:59:08.591Z,13.57
2018-09-13T08:01:37.049Z,14.33
2018-09-13T08:04:05.475Z,13.50
2018-09-13T08:06:33.864Z,16.10
2018-09-13T08:09:02.466Z,15.60
2018-09-13T08:11:30.878Z,14.77
2018-09-13T08:13:59.292Z,17.00
2018-09-13T08:16:27.707Z,16.50
2018-09-13T08:18:56.136Z,14.03
2018-09-13T08:21:24.611Z,15.67
2018-09-13T08:23:53.205Z,15.57
2018-09-13T08:26:21.628Z,15.87
2018-09-13T08:28:50.090Z,15.50
2018-09-13T08:31:19.008Z,15.10
2018-09-13T08:33:47.430Z,14.40
2018-09-13T08:36:15.851Z,15.00
2018-09-13T08:38:44.267Z,15.00
2018-09-13T08:41:12.747Z,13.37
2018-09-13T08:43:41.256Z,13.33
2018-09-13T08:46:09.694Z,13.17
2018-09-13T08:48:38.182Z,12.50
2018-09-13T08:51:07.069Z,14.77
2018-09-13T08:53:35.690Z,13.90
2018-09-13T08:56:04.123Z,14.17
2018-09-13T08:58:32.596Z,15.53
2018-09-13T09:01:01.689Z,16.20
2018-09-13T09:03:30.179Z,16.07
2018-09-13T09:05:58.651Z,17.70
2018-09-13T09:08:27.117Z,16.53
2018-09-13T09:10:55.554Z,15.80
2018-09-13T09:13:24.112Z,15.57
2018-09-13T09:15:52.660Z,15.37
2018-09-13T09:18:21.065Z,14.87
2018-09-13T09:20:49.585Z,16.53
2018-09-13T09:23:17.975Z,13.47
2018-09-13T09:25:46.392Z,13.77
2018-09-13T09:28:14.819Z,12.20
2018-09-13T09:30:43.215Z,11.47
2018-09-13T09:33:11.705Z,12.93
2018-09-13T09:35:40.126Z,11.27
2018-09-13T09:38:08.556Z,11.60
2018-09-13T09:40:37.033Z,10.77
2018-09-13T09:43:05.625Z,9.70
2018-09-13T09:45:34.076Z,10.80
2018-09-13T09:48:02.543Z,9.47
2018-09-13T09:50:30.967Z,10.53
2018-09-13T09:52:59.444Z,10.03
2018-09-13T09:55:27.907Z,11.03
2018-09-13T09:57:56.797Z,9.57
2018-09-13T10:00:30.602Z,10.60
2018-09-13T10:02:59.129Z,11.23
2018-09-13T10:05:27.579Z,12.23
2018-09-13T10:07:55.979Z,12.97
2018-09-13T10:10:24.427Z,12.70
2018-09-13T10:12:52.927Z,11.50
2018-09-13T10:15:26.752Z,10.90
2018-09-13T10:18:00.535Z,10.07
2018-09-13T10:20:34.343Z,10.10
2018-09-13T10:23:08.156Z,8.57
2018-09-13T10:25:42.096Z,9.97
2018-09-13T10:28:15.816Z,9.57
2018-09-13T10:30:49.474Z,10.90
2018-09-13T10:33:23.048Z,9.40
2018-09-13T10:35:56.751Z,9.00
2018-09-13T10:38:30.559Z,9.43
2018-09-13T10:41:04.186Z,10.47
2018-09-13T10:43:37.993Z,10.53
2018-09-13T10:46:11.706Z,12.30
2018-09-13T10:48:44.417Z,12.27
2018-09-13T10:51:21.407Z,10.60
2018-09-13T10:53:54.829Z,11.07
2018-09-13T10:56:23.273Z,8.97
2018-09-13T10:58:51.669Z,8.13
2018-09-13T11:01:20.181Z,7.67
2018-09-13T11:03:48.703Z,7.87
2018-09-13T11:06:17.149Z,10.57
2018-09-13T11:08:45.840Z,11.47
2018-09-13T11:11:14.368Z,8.33
2018-09-13T11:13:46.944Z,10.07
2018-09-13T11:16:15.440Z,9.20
2018-09-13T11:18:43.805Z,12.20
2018-09-13T11:21:12.249Z,14.33
2018-09-13T11:23:40.646Z,11.90
2018-09-13T11:26:09.129Z,12.10
2018-09-13T11:28:37.725Z,11.43
2018-09-13T11:31:06.256Z,11.07
2018-09-13T11:33:35.261Z,10.90
2018-09-13T11:36:03.765Z,12.80
2018-09-13T11:38:32.212Z,14.00
2018-09-13T11:41:00.698Z,11.97
2018-09-13T11:43:29.620Z,13.83
2018-09-13T11:45:58.106Z,15.60
2018-09-13T11:48:26.564Z,14.73
2018-09-13T11:50:54.968Z,13.17
2018-09-13T11:53:23.372Z,14.73
2018-09-13T11:55:51.837Z,13.37
2018-09-13T11:58:20.236Z,11.87
2018-09-13T12:00:48.660Z,13.20
2018-09-13T12:03:17.201Z,13.30
2018-09-13T12:05:45.704Z,13.07
2018-09-13T12:08:14.190Z,14.73
2018-09-13T12:10:42.599Z,15.50
2018-09-13T12:13:11.027Z,15.00
2018-09-13T12:15:39.500Z,15.80
2018-09-13T12:18:08.034Z,15.23
2018-09-13T12:20:36.423Z,17.57
2018-09-13T12:23:05.032Z,16.97
2018-09-13T12:25:33.732Z,15.70
2018-09-13T12:28:02.377Z,16.07
2018-09-13T12:30:30.964Z,15.30
2018-09-13T12:32:59.751Z,16.33
2018-09-13T12:35:28.576Z,16.30
2018-09-13T12:37:57.029Z,14.50
2018-09-13T12:40:25.445Z,14.13
2018-09-13T12:42:53.940Z,15.40
2018-09-13T12:45:22.375Z,15.53
2018-09-13T12:47:50.779Z,16.50
2018-09-13T12:50:19.306Z,14.90
2018-09-13T12:52:47.793Z,15.00
2018-09-13T12:55:16.331Z,17.47
2018-09-13T12:57:44.790Z,19.23
2018-09-13T13:00:13.376Z,15.87
2018-09-13T13:02:41.824Z,17.87
2018-09-13T13:05:10.799Z,14.93
2018-09-13T13:07:39.300Z,14.50
2018-09-13T13:10:07.755Z,15.63
2018-09-13T13:12:36.150Z,15.33
2018-09-13T13:15:05.540Z,13.20
2018-09-13T13:17:34.585Z,13.57
2018-09-13T13:20:03.085Z,12.57
2018-09-13T13:22:31.581Z,12.37
2018-09-13T13:24:59.984Z,12.13
2018-09-13T13:27:28.676Z,11.60
2018-09-13T13:29:57.289Z,13.47
2018-09-13T13:32:25.890Z,13.70
2018-09-13T13:34:54.318Z,14.00
2018-09-13T13:37:23.142Z,11.53
2018-09-13T13:39:51.655Z,12.93
2018-09-13T13:42:20.127Z,13.43
2018-09-13T13:44:48.570Z,13.17
2018-09-13T13:47:17.016Z,14.27
2018-09-13T13:49:45.477Z,13.10
2018-09-13T13:52:13.943Z,11.20
2018-09-13T13:54:42.389Z,11.30
2018-09-13T13:57:10.839Z,11.17
2018-09-13T13:59:39.272Z,11.70
2018-09-13T14:02:07.751Z,10.90
2018-09-13T14:04:36.233Z,10.17
2018-09-13T14:07:04.714Z,12.07
2018-09-13T14:09:34.170Z,10.97
2018-09-13T14:12:02.648Z,11.20
2018-09-13T14:14:31.092Z,10.07
2018-09-13T14:16:59.483Z,9.77
2018-09-13T14:19:27.904Z,9.13
2018-09-13T14:21:56.331Z,9.13
2018-09-13T14:24:25.681Z,10.20
2018-09-13T14:26:54.100Z,10.13
2018-09-13T14:29:22.584Z,11.10
2018-09-13T14:31:51.057Z,10.53
2018-09-13T14:34:19.640Z,10.43
2018-09-13T14:36:48.335Z,10.53
2018-09-13T14:39:16.855Z,10.93
2018-09-13T14:41:45.308Z,12.60
2018-09-13T14:44:13.724Z,11.53
2018-09-13T14:46:42.128Z,10.67
2018-09-13T14:49:10.596Z,11.03
2018-09-13T14:51:39.114Z,11.00
2018-09-13T14:54:07.596Z,10.30
2018-09-13T14:56:36.036Z,11.07
2018-09-13T14:59:04.479Z,11.30
2018-09-13T15:01:32.968Z,10.83
2018-09-13T15:04:01.096Z,9.90
2018-09-13T15:06:29.648Z,10.90
2018-09-13T15:08:58.269Z,14.00
2018-09-13T15:11:26.824Z,10.20
2018-09-13T15:13:55.707Z,10.90
2018-09-13T15:16:24.646Z,11.17
2018-09-13T15:18:53.208Z,10.50
2018-09-13T15:21:22.519Z,10.80
2018-09-13T15:23:50.960Z,10.77
2018-09-13T15:26:19.453Z,10.50
2018-09-13T15:28:47.918Z,11.47
2018-09-13T15:31:16.414Z,14.47
2018-09-13T15:33:44.853Z,10.53
2018-09-13T15:36:13.379Z,12.67
2018-09-13T15:38:41.841Z,10.20
2018-09-13T15:41:10.261Z,10.03
2018-09-13T15:43:38.659Z,9.67
2018-09-13T15:46:07.321Z,9.33
2018-09-13T15:48:35.745Z,8.20
2018-09-13T15:51:04.176Z,9.23
2018-09-13T15:53:32.780Z,8.60
2018-09-13T15:56:01.256Z,9.10
2018-09-13T15:58:29.854Z,9.20
2018-09-13T16:00:58.423Z,9.13
2018-09-13T16:03:26.925Z,8.83
2018-09-13T16:05:55.427Z,9.50
2018-09-13T16:08:23.866Z,8.80
2018-09-13T16:10:52.330Z,8.87
2018-09-13T16:13:20.969Z,8.57
2018-09-13T16:15:49.411Z,8.90
2018-09-13T16:18:17.924Z,9.07
2018-09-13T16:20:46.384Z,8.97
2018-09-13T16:23:14.812Z,9.13
2018-09-13T16:25:43.754Z,9.03
2018-09-13T16:28:12.201Z,9.57
2018-09-13T16:30:40.577Z,9.63
2018-09-13T16:33:08.995Z,10.30
2018-09-13T16:35:46.100Z,9.23
2018-09-13T16:38:19.884Z,10.73
2018-09-13T16:40:54.119Z,10.73
2018-09-13T16:43:27.829Z,9.50
2018-09-13T16:45:56.266Z,10.50
2018-09-13T16:48:29.000Z,9.30
2018-09-13T16:50:57.565Z,9.27
2018-09-13T16:53:26.130Z,10.63
2018-09-13T16:55:54.642Z,10.07
2018-09-13T16:58:23.085Z,9.83
2018-09-13T17:00:51.500Z,10.50
2018-09-13T17:03:19.922Z,9.93
2018-09-13T17:05:48.596Z,9.60
2018-09-13T17:08:17.114Z,9.33
2018-09-13T17:10:45.678Z,9.97
2018-09-13T17:13:14.246Z,10.87
2018-09-13T17:15:42.721Z,10.47
2018-09-13T17:18:11.141Z,11.20
2018-09-13T17:20:39.609Z,11.00
2018-09-13T17:23:08.120Z,10.83
2018-09-13T17:25:36.594Z,11.67
2018-09-13T17:28:05.506Z,11.63
2018-09-13T17:30:33.916Z,12.00
2018-09-13T17:33:02.347Z,11.37
2018-09-13T17:35:31.268Z,11.67
2018-09-13T17:38:00.028Z,11.20
2018-09-13T17:40:28.457Z,11.57
2018-09-13T17:42:56.931Z,11.60
2018-09-13T17:45:25.376Z,11.80
2018-09-13T17:47:54.060Z,12.77
2018-09-13T17:50:22.742Z,12.53
2018-09-13T17:52:51.425Z,12.23
2018-09-13T17:55:19.908Z,11.27
2018-09-13T17:57:48.578Z,11.83
2018-09-13T18:00:17.080Z,12.43
2018-09-13T18:02:45.813Z,11.67
2018-09-13T18:05:14.312Z,12.53
2018-09-13T18:07:42.871Z,12.20
2018-09-13T18:10:11.304Z,13.00
2018-09-13T18:12:40.197Z,12.97
2018-09-13T18:15:08.798Z,12.17
2018-09-13T18:17:37.224Z,12.63
2018-09-13T18:20:06.098Z,13.20
2018-09-13T18:22:34.575Z,12.60
2018-09-13T18:25:03.128Z,13.27
2018-09-13T18:27:31.930Z,12.40
2018-09-13T18:30:00.511Z,13.07
2018-09-13T18:32:29.957Z,12.83
2018-09-13T18:34:58.359Z,12.13
2018-09-13T18:37:26.832Z,12.70
2018-09-13T18:39:55.384Z,11.50
2018-09-13T18:42:24.276Z,12.43
2018-09-13T18:44:52.686Z,13.23
2018-09-13T18:47:21.101Z,13.27
2018-09-13T18:49:49.568Z,13.37
2018-09-13T18:52:18.007Z,12.17
2018-09-13T18:54:46.433Z,13.00
2018-09-13T18:57:14.872Z,13.37
2018-09-13T18:59:43.358Z,13.70
2018-09-13T19:02:11.754Z,13.37
2018-09-13T19:04:40.298Z,14.37
2018-09-13T19:07:08.786Z,12.80
2018-09-13T19:09:37.290Z,13.27
2018-09-13T19:12:05.769Z,14.20
2018-09-13T19:14:34.404Z,13.50
2018-09-13T19:17:02.983Z,13.03
2018-09-13T19:19:31.633Z,13.80
2018-09-13T19:22:00.267Z,14.67
2018-09-13T19:24:28.812Z,13.60
2018-09-13T19:26:57.436Z,13.97
2018-09-13T19:29:25.879Z,15.03
2018-09-13T19:31:54.483Z,15.00
2018-09-13T19:34:22.924Z,15.27
2018-09-13T19:36:51.339Z,15.10
2018-09-13T19:39:19.768Z,17.07
2018-09-13T19:41:48.246Z,17.03
2018-09-13T19:44:16.748Z,15.87
2018-09-13T19:46:45.146Z,16.73
2018-09-13T19:49:13.549Z,16.40
2018-09-13T19:51:42.158Z,17.13
2018-09-13T19:54:10.592Z,17.33
2018-09-13T19:56:39.179Z,17.80
2018-09-13T19:59:07.644Z,18.20
2018-09-13T20:01:36.285Z,18.23
2018-09-13T20:04:04.797Z,18.73
2018-09-13T20:06:33.234Z,17.43
2018-09-13T20:09:01.734Z,18.57
2018-09-13T20:11:30.190Z,17.80
2018-09-13T20:13:58.626Z,18.77
2018-09-13T20:16:27.066Z,18.77
2018-09-13T20:18:55.605Z,19.37
2018-09-13T20:21:24.654Z,19.97
2018-09-13T20:23:53.096Z,19.53
2018-09-13T20:26:21.548Z,19.73
2018-09-13T20:28:50.068Z,19.53
2018-09-13T20:31:18.435Z,20.47
2018-09-13T20:33:46.930Z,20.00
2018-09-13T20:36:15.400Z,18.67
2018-09-13T20:38:43.898Z,21.70
2018-09-13T20:41:12.503Z,20.77
2018-09-13T20:43:40.991Z,20.20
2018-09-13T20:46:09.460Z,21.33
2018-09-13T20:48:37.941Z,21.73
2018-09-13T20:51:06.638Z,21.77
2018-09-13T20:53:35.087Z,20.70
2018-09-13T20:56:03.572Z,21.07
2018-09-13T20:58:32.092Z,22.43
2018-09-13T21:01:00.605Z,22.67
2018-09-13T21:03:29.132Z,23.13
2018-09-13T21:05:57.605Z,22.27
2018-09-13T21:08:26.308Z,21.17
2018-09-13T21:10:54.831Z,22.67
2018-09-13T21:13:24.217Z,22.27
2018-09-13T21:15:52.760Z,23.60
2018-09-13T21:18:21.520Z,22.27
2018-09-13T21:20:50.044Z,22.60
2018-09-13T21:23:18.586Z,21.97
2018-09-13T21:25:47.001Z,23.30
2018-09-13T21:28:15.481Z,22.87
2018-09-13T21:30:43.965Z,22.83
2018-09-13T21:33:12.833Z,23.63
2018-09-13T21:35:41.271Z,24.20
2018-09-13T21:38:09.753Z,21.97
2018-09-13T21:40:38.316Z,21.97
2018-09-13T21:43:06.744Z,22.90
2018-09-13T21:45:35.223Z,22.80
2018-09-13T21:48:03.621Z,24.40
2018-09-13T21:50:32.107Z,22.37
2018-09-13T21:53:00.599Z,20.37
2018-09-13T21:55:29.072Z,24.37
2018-09-13T21:57:57.559Z,22.13
2018-09-13T22:00:27.010Z,21.83
2018-09-13T22:02:55.726Z,23.07
2018-09-13T22:05:24.245Z,24.97
2018-09-13T22:07:52.676Z,23.30
2018-09-13T22:10:21.097Z,20.97
2018-09-13T22:12:49.502Z,20.97
2018-09-13T22:15:17.945Z,21.23
2018-09-13T22:17:46.393Z,21.07
2018-09-13T22:20:14.783Z,22.47
2018-09-13T22:22:43.267Z,21.90
2018-09-13T22:25:11.693Z,22.57
2018-09-13T22:27:40.777Z,22.40
2018-09-13T22:30:10.177Z,22.80
2018-09-13T22:32:38.623Z,21.63
2018-09-13T22:35:07.085Z,21.10
2018-09-13T22:37:36.534Z,21.80
2018-09-13T22:40:05.436Z,20.77
2018-09-13T22:42:34.218Z,21.77
2018-09-13T22:45:03.651Z,23.97
2018-09-13T22:47:32.615Z,21.30
2018-09-13T22:50:01.103Z,22.57
2018-09-13T22:52:29.558Z,23.73
2018-09-13T22:54:58.024Z,24.67
2018-09-13T22:57:26.474Z,23.87
2018-09-13T22:59:55.037Z,23.00
2018-09-13T23:02:23.477Z,23.30
2018-09-13T23:04:51.905Z,23.23
2018-09-13T23:07:20.329Z,23.90
2018-09-13T23:09:48.724Z,23.60
2018-09-13T23:12:17.125Z,25.40
2018-09-13T23:14:45.576Z,22.90
2018-09-13T23:17:14.021Z,24.33
2018-09-13T23:19:42.463Z,25.17
2018-09-13T23:22:11.669Z,25.00
2018-09-13T23:24:40.266Z,22.83
2018-09-13T23:27:09.562Z,23.87
2018-09-13T23:29:38.638Z,25.80
2018-09-13T23:32:07.326Z,23.87
2018-09-13T23:34:35.759Z,23.50
2018-09-13T23:37:04.262Z,25.10
2018-09-13T23:39:32.764Z,32.03
2018-09-13T23:42:01.128Z,30.70
2018-09-13T23:44:29.563Z,27.97
2018-09-13T23:46:57.996Z,30.47
2018-09-13T23:49:26.397Z,29.27
2018-09-13T23:51:54.845Z,28.43
2018-09-13T23:54:23.216Z,27.87
2018-09-13T23:56:51.639Z,30.57
2018-09-13T23:59:20.044Z,33.57
